createdAt,value
2023-12-21T00:00:38.000Z,91.03
2023-12-21T00:01:41.000Z,91.64
2023-12-21T00:02:45.000Z,91.75
2023-12-21T00:03:49.000Z,91.58
2023-12-21T00:04:52.000Z,91.38
2023-12-21T00:05:56.000Z,91.44
2023-12-21T00:07:00.000Z,91.24
2023-12-21T00:08:04.000Z,91.34
2023-12-21T00:09:07.000Z,91.34
2023-12-21T00:10:11.000Z,91.24
2023-12-21T00:11:15.000Z,91.13
2023-12-21T00:12:18.000Z,90.31
2023-12-21T00:13:22.000Z,90.61
2023-12-21T00:14:26.000Z,90.72
2023-12-21T00:15:30.000Z,90.82
2023-12-21T00:16:33.000Z,90.72
2023-12-21T00:17:37.000Z,90.51
2023-12-21T00:18:41.000Z,90.72
2023-12-21T00:19:45.000Z,90.2
2023-12-21T00:20:49.000Z,90.31
2023-12-21T00:21:52.000Z,90.0
2023-12-21T00:22:56.000Z,90.31
2023-12-21T00:24:00.000Z,90.1
2023-12-21T00:25:04.000Z,90.2
2023-12-21T00:26:08.000Z,90.2
2023-12-21T00:27:11.000Z,90.41
2023-12-21T00:28:15.000Z,90.51
2023-12-21T00:29:19.000Z,89.89
2023-12-21T00:30:23.000Z,89.69
2023-12-21T00:31:26.000Z,90.06
2023-12-21T00:32:30.000Z,90.1
2023-12-21T00:33:34.000Z,90.41
2023-12-21T00:34:38.000Z,90.0
2023-12-21T00:35:41.000Z,89.69
2023-12-21T00:36:45.000Z,89.75
2023-12-21T00:37:49.000Z,90.16
2023-12-21T00:38:53.000Z,90.31
2023-12-21T00:39:57.000Z,90.41
2023-12-21T00:41:00.000Z,90.0
2023-12-21T00:42:04.000Z,89.65
2023-12-21T00:43:08.000Z,89.54
2023-12-21T00:44:12.000Z,89.44
2023-12-21T00:45:16.000Z,89.34
2023-12-21T00:46:19.000Z,89.54
2023-12-21T00:47:23.000Z,89.34
2023-12-21T00:48:27.000Z,89.34
2023-12-21T00:49:30.000Z,89.34
2023-12-21T00:50:34.000Z,89.95
2023-12-21T00:51:38.000Z,90.06
2023-12-21T00:52:42.000Z,89.85
2023-12-21T00:53:45.000Z,89.65
2023-12-21T00:54:49.000Z,89.85
2023-12-21T00:55:53.000Z,90.16
2023-12-21T00:56:57.000Z,89.95
2023-12-21T00:58:00.000Z,89.85
2023-12-21T00:59:04.000Z,90.16
2023-12-21T01:00:08.000Z,90.06
2023-12-21T01:01:12.000Z,90.47
2023-12-21T01:02:15.000Z,90.47
2023-12-21T01:03:19.000Z,90.67
2023-12-21T01:04:23.000Z,90.99
2023-12-21T01:05:26.000Z,90.99
2023-12-21T01:06:30.000Z,91.4
2023-12-21T01:07:34.000Z,91.4
2023-12-21T01:08:38.000Z,91.3
2023-12-21T01:09:41.000Z,91.3
2023-12-21T01:10:45.000Z,91.4
2023-12-21T01:11:49.000Z,91.4
2023-12-21T01:12:53.000Z,91.5
2023-12-21T01:13:56.000Z,91.5
2023-12-21T01:15:00.000Z,92.12
2023-12-21T01:16:04.000Z,92.57
2023-12-21T01:17:08.000Z,92.57
2023-12-21T01:18:11.000Z,92.78
2023-12-21T01:19:15.000Z,92.68
2023-12-21T01:20:19.000Z,92.78
2023-12-21T01:21:23.000Z,92.57
2023-12-21T01:22:26.000Z,92.68
2023-12-21T01:23:30.000Z,92.27
2023-12-21T01:24:34.000Z,92.27
2023-12-21T01:25:38.000Z,92.43
2023-12-21T01:26:42.000Z,92.63
2023-12-21T01:27:45.000Z,92.53
2023-12-21T01:28:49.000Z,92.43
2023-12-21T01:29:53.000Z,92.12
2023-12-21T01:30:57.000Z,92.43
2023-12-21T01:32:01.000Z,92.22
2023-12-21T01:33:04.000Z,92.02
2023-12-21T01:34:08.000Z,92.43
2023-12-21T01:35:12.000Z,92.53
2023-12-21T01:36:16.000Z,92.53
2023-12-21T01:37:19.000Z,92.74
2023-12-21T01:38:23.000Z,92.53
2023-12-21T01:39:27.000Z,92.84
2023-12-21T01:40:31.000Z,93.05
2023-12-21T01:41:34.000Z,92.74
2023-12-21T01:42:38.000Z,92.63
2023-12-21T01:43:42.000Z,92.63
2023-12-21T01:44:46.000Z,92.74
2023-12-21T01:45:49.000Z,92.94
2023-12-21T01:46:53.000Z,92.53
2023-12-21T01:47:57.000Z,93.25
2023-12-21T01:49:01.000Z,93.66
2023-12-21T01:50:04.000Z,93.66
2023-12-21T01:51:08.000Z,93.15
2023-12-21T01:52:12.000Z,93.25
2023-12-21T01:53:15.000Z,92.84
2023-12-21T01:54:19.000Z,93.15
2023-12-21T01:55:23.000Z,93.25
2023-12-21T01:56:27.000Z,93.56
2023-12-21T01:57:30.000Z,93.46
2023-12-21T01:58:34.000Z,93.77
2023-12-21T01:59:38.000Z,93.98
2023-12-21T02:00:41.000Z,94.18
2023-12-21T02:01:45.000Z,94.49
2023-12-21T02:02:49.000Z,94.59
2023-12-21T02:03:53.000Z,94.38
2023-12-21T02:04:56.000Z,94.18
2023-12-21T02:06:00.000Z,94.08
2023-12-21T02:07:04.000Z,93.87
2023-12-21T02:08:08.000Z,93.77
2023-12-21T02:09:12.000Z,94.08
2023-12-21T02:10:15.000Z,93.98
2023-12-21T02:11:19.000Z,93.77
2023-12-21T02:12:23.000Z,93.46
2023-12-21T02:13:27.000Z,93.77
2023-12-21T02:14:30.000Z,93.77
2023-12-21T02:15:34.000Z,93.87
2023-12-21T02:16:38.000Z,94.18
2023-12-21T02:17:42.000Z,95.0
2023-12-21T02:18:45.000Z,95.83
2023-12-21T02:19:49.000Z,96.45
2023-12-21T02:20:53.000Z,97.21
2023-12-21T02:21:57.000Z,97.31
2023-12-21T02:23:01.000Z,97.94
2023-12-21T02:24:04.000Z,98.35
2023-12-21T02:25:08.000Z,98.35
2023-12-21T02:26:12.000Z,98.76
2023-12-21T02:27:16.000Z,98.76
2023-12-21T02:28:20.000Z,98.97
2023-12-21T02:29:23.000Z,99.07
2023-12-21T02:30:27.000Z,99.07
2023-12-21T02:31:31.000Z,99.38
2023-12-21T02:32:35.000Z,99.73
2023-12-21T02:33:38.000Z,99.84
2023-12-21T02:34:42.000Z,99.84
2023-12-21T02:35:46.000Z,99.52
2023-12-21T02:36:50.000Z,99.63
2023-12-21T02:37:53.000Z,99.63
2023-12-21T02:38:57.000Z,99.94
2023-12-21T02:40:01.000Z,99.99
2023-12-21T02:41:05.000Z,99.99
2023-12-21T02:42:08.000Z,99.99
2023-12-21T02:43:12.000Z,99.99
2023-12-21T02:44:16.000Z,99.99
2023-12-21T02:45:19.000Z,99.84
2023-12-21T02:46:23.000Z,99.52
2023-12-21T02:47:27.000Z,99.17
2023-12-21T02:48:31.000Z,99.17
2023-12-21T02:49:34.000Z,98.97
2023-12-21T02:50:38.000Z,98.66
2023-12-21T02:51:42.000Z,98.45
2023-12-21T02:52:46.000Z,98.14
2023-12-21T02:53:49.000Z,98.03
2023-12-21T02:54:53.000Z,98.14
2023-12-21T02:55:57.000Z,97.78
2023-12-21T02:57:01.000Z,97.58
2023-12-21T02:58:04.000Z,97.58
2023-12-21T02:59:08.000Z,97.48
2023-12-21T03:00:12.000Z,97.38
2023-12-21T03:01:16.000Z,97.38
2023-12-21T03:02:19.000Z,97.27
2023-12-21T03:03:23.000Z,96.96
2023-12-21T03:04:27.000Z,96.66
2023-12-21T03:05:31.000Z,96.45
2023-12-21T03:06:35.000Z,96.66
2023-12-21T03:07:38.000Z,96.86
2023-12-21T03:08:42.000Z,96.75
2023-12-21T03:09:46.000Z,97.06
2023-12-21T03:10:50.000Z,96.55
2023-12-21T03:11:53.000Z,96.75
2023-12-21T03:12:57.000Z,96.86
2023-12-21T03:14:01.000Z,96.96
2023-12-21T03:15:05.000Z,96.86
2023-12-21T03:16:09.000Z,96.55
2023-12-21T03:17:12.000Z,96.55
2023-12-21T03:18:16.000Z,96.34
2023-12-21T03:19:20.000Z,96.45
2023-12-21T03:20:24.000Z,96.66
2023-12-21T03:21:27.000Z,96.34
2023-12-21T03:22:31.000Z,96.45
2023-12-21T03:23:35.000Z,96.34
2023-12-21T03:24:39.000Z,96.34
2023-12-21T03:25:43.000Z,96.24
2023-12-21T03:26:46.000Z,96.03
2023-12-21T03:27:50.000Z,96.09
2023-12-21T03:28:54.000Z,95.99
2023-12-21T03:29:58.000Z,96.14
2023-12-21T03:31:01.000Z,95.89
2023-12-21T03:32:05.000Z,95.68
2023-12-21T03:33:09.000Z,95.89
2023-12-21T03:34:12.000Z,96.2
2023-12-21T03:35:16.000Z,96.2
2023-12-21T03:36:20.000Z,95.99
2023-12-21T03:37:24.000Z,96.09
2023-12-21T03:38:27.000Z,96.09
2023-12-21T03:39:31.000Z,96.03
2023-12-21T03:40:35.000Z,96.14
2023-12-21T03:41:39.000Z,96.14
2023-12-21T03:42:42.000Z,96.14
2023-12-21T03:43:46.000Z,96.14
2023-12-21T03:44:50.000Z,96.09
2023-12-21T03:45:54.000Z,96.03
2023-12-21T03:46:57.000Z,95.83
2023-12-21T03:48:01.000Z,95.89
2023-12-21T03:49:05.000Z,95.78
2023-12-21T03:50:09.000Z,95.89
2023-12-21T03:51:12.000Z,95.78
2023-12-21T03:52:16.000Z,95.89
2023-12-21T03:53:20.000Z,95.78
2023-12-21T03:54:24.000Z,95.99
2023-12-21T03:55:27.000Z,95.68
2023-12-21T03:56:31.000Z,95.78
2023-12-21T03:57:35.000Z,95.68
2023-12-21T03:58:39.000Z,95.68
2023-12-21T03:59:42.000Z,95.68
2023-12-21T04:00:46.000Z,95.78
2023-12-21T04:01:50.000Z,95.89
2023-12-21T04:02:54.000Z,95.89
2023-12-21T04:03:58.000Z,95.68
2023-12-21T04:05:01.000Z,95.68
2023-12-21T04:06:05.000Z,95.58
2023-12-21T04:07:09.000Z,95.58
2023-12-21T04:08:13.000Z,95.48
2023-12-21T04:09:17.000Z,95.17
2023-12-21T04:10:20.000Z,95.17
2023-12-21T04:11:24.000Z,95.27
2023-12-21T04:12:28.000Z,95.27
2023-12-21T04:13:31.000Z,95.48
2023-12-21T04:14:35.000Z,95.37
2023-12-21T04:15:39.000Z,95.48
2023-12-21T04:16:43.000Z,95.68
2023-12-21T04:17:47.000Z,95.37
2023-12-21T04:18:50.000Z,95.48
2023-12-21T04:19:54.000Z,95.06
2023-12-21T04:20:58.000Z,95.27
2023-12-21T04:22:01.000Z,95.48
2023-12-21T04:23:05.000Z,95.48
2023-12-21T04:24:09.000Z,95.89
2023-12-21T04:25:13.000Z,96.09
2023-12-21T04:26:16.000Z,95.89
2023-12-21T04:27:20.000Z,95.78
2023-12-21T04:28:24.000Z,95.68
2023-12-21T04:29:28.000Z,95.78
2023-12-21T04:30:31.000Z,95.68
2023-12-21T04:31:35.000Z,95.37
2023-12-21T04:32:39.000Z,95.58
2023-12-21T04:33:43.000Z,95.48
2023-12-21T04:34:46.000Z,95.37
2023-12-21T04:35:50.000Z,95.48
2023-12-21T04:36:54.000Z,95.68
2023-12-21T04:37:58.000Z,95.68
2023-12-21T04:39:01.000Z,95.48
2023-12-21T04:40:05.000Z,95.27
2023-12-21T04:41:09.000Z,95.37
2023-12-21T04:42:13.000Z,95.58
2023-12-21T04:43:16.000Z,95.89
2023-12-21T04:44:20.000Z,96.09
2023-12-21T04:45:24.000Z,96.41
2023-12-21T04:46:28.000Z,96.71
2023-12-21T04:47:32.000Z,96.86
2023-12-21T04:48:35.000Z,97.17
2023-12-21T04:49:39.000Z,97.27
2023-12-21T04:50:43.000Z,96.66
2023-12-21T04:51:47.000Z,96.45
2023-12-21T04:52:51.000Z,96.75
2023-12-21T04:53:54.000Z,96.66
2023-12-21T04:54:58.000Z,96.55
2023-12-21T04:56:02.000Z,96.86
2023-12-21T04:57:06.000Z,96.66
2023-12-21T04:58:09.000Z,96.66
2023-12-21T04:59:13.000Z,96.45
2023-12-21T05:00:17.000Z,96.14
2023-12-21T05:01:21.000Z,95.99
2023-12-21T05:02:24.000Z,95.78
2023-12-21T05:03:28.000Z,95.48
2023-12-21T05:04:32.000Z,95.68
2023-12-21T05:05:36.000Z,95.68
2023-12-21T05:06:39.000Z,95.68
2023-12-21T05:07:43.000Z,95.68
2023-12-21T05:08:47.000Z,95.37
2023-12-21T05:09:51.000Z,94.85
2023-12-21T05:10:54.000Z,95.37
2023-12-21T05:11:58.000Z,95.17
2023-12-21T05:13:02.000Z,95.06
2023-12-21T05:14:05.000Z,95.17
2023-12-21T05:15:09.000Z,94.76
2023-12-21T05:16:13.000Z,95.06
2023-12-21T05:17:17.000Z,94.85
2023-12-21T05:18:20.000Z,95.06
2023-12-21T05:19:24.000Z,94.96
2023-12-21T05:20:28.000Z,94.45
2023-12-21T05:21:32.000Z,94.45
2023-12-21T05:22:35.000Z,94.4
2023-12-21T05:23:39.000Z,94.6
2023-12-21T05:24:43.000Z,94.51
2023-12-21T05:25:47.000Z,94.09
2023-12-21T05:26:50.000Z,94.2
2023-12-21T05:27:54.000Z,94.4
2023-12-21T05:28:58.000Z,94.4
2023-12-21T05:30:02.000Z,94.4
2023-12-21T05:31:06.000Z,94.3
2023-12-21T05:32:09.000Z,94.4
2023-12-21T05:33:13.000Z,94.2
2023-12-21T05:34:17.000Z,94.3
2023-12-21T05:35:21.000Z,94.2
2023-12-21T05:36:24.000Z,94.3
2023-12-21T05:37:28.000Z,94.09
2023-12-21T05:38:32.000Z,94.3
2023-12-21T05:39:36.000Z,94.3
2023-12-21T05:40:39.000Z,94.2
2023-12-21T05:41:43.000Z,94.4
2023-12-21T05:42:47.000Z,94.51
2023-12-21T05:43:51.000Z,94.71
2023-12-21T05:44:54.000Z,94.6
2023-12-21T05:45:58.000Z,94.6
2023-12-21T05:47:02.000Z,94.71
2023-12-21T05:48:06.000Z,94.6
2023-12-21T05:49:09.000Z,94.81
2023-12-21T05:50:13.000Z,94.81
2023-12-21T05:51:17.000Z,94.81
2023-12-21T05:52:21.000Z,94.92
2023-12-21T05:53:24.000Z,95.02
2023-12-21T05:54:28.000Z,95.12
2023-12-21T05:55:32.000Z,95.12
2023-12-21T05:56:36.000Z,95.23
2023-12-21T05:57:39.000Z,95.23
2023-12-21T05:58:43.000Z,95.33
2023-12-21T05:59:47.000Z,95.53
2023-12-21T06:00:50.000Z,95.64
2023-12-21T06:01:54.000Z,95.74
2023-12-21T06:02:58.000Z,95.84
2023-12-21T06:04:02.000Z,95.95
2023-12-21T06:05:05.000Z,96.15
2023-12-21T06:06:09.000Z,96.25
2023-12-21T06:07:13.000Z,96.36
2023-12-21T06:08:17.000Z,96.36
2023-12-21T06:09:20.000Z,96.36
2023-12-21T06:10:24.000Z,96.46
2023-12-21T06:11:28.000Z,96.56
2023-12-21T06:12:32.000Z,96.67
2023-12-21T06:13:35.000Z,96.67
2023-12-21T06:14:39.000Z,96.67
2023-12-21T06:15:43.000Z,96.88
2023-12-21T06:16:47.000Z,97.08
2023-12-21T06:17:51.000Z,97.18
2023-12-21T06:18:54.000Z,97.08
2023-12-21T06:19:58.000Z,97.18
2023-12-21T06:21:02.000Z,97.39
2023-12-21T06:22:06.000Z,97.49
2023-12-21T06:23:09.000Z,97.49
2023-12-21T06:24:13.000Z,97.6
2023-12-21T06:25:17.000Z,97.69
2023-12-21T06:26:21.000Z,97.69
2023-12-21T06:27:25.000Z,97.9
2023-12-21T06:28:28.000Z,97.8
2023-12-21T06:29:32.000Z,97.8
2023-12-21T06:30:36.000Z,97.69
2023-12-21T06:31:40.000Z,97.8
2023-12-21T06:32:43.000Z,97.8
2023-12-21T06:33:47.000Z,97.9
2023-12-21T06:34:51.000Z,97.9
2023-12-21T06:35:55.000Z,97.9
2023-12-21T06:36:58.000Z,98.0
2023-12-21T06:38:02.000Z,97.9
2023-12-21T06:39:06.000Z,98.0
2023-12-21T06:40:09.000Z,98.0
2023-12-21T06:41:13.000Z,98.0
2023-12-21T06:42:17.000Z,98.0
2023-12-21T06:43:21.000Z,98.21
2023-12-21T06:44:24.000Z,98.32
2023-12-21T06:45:28.000Z,98.42
2023-12-21T06:46:32.000Z,98.52
2023-12-21T06:47:36.000Z,98.72
2023-12-21T06:48:39.000Z,98.72
2023-12-21T06:49:43.000Z,98.72
2023-12-21T06:50:47.000Z,98.83
2023-12-21T06:51:51.000Z,98.83
2023-12-21T06:52:54.000Z,98.93
2023-12-21T06:53:58.000Z,99.04
2023-12-21T06:55:02.000Z,99.14
2023-12-21T06:56:05.000Z,99.24
2023-12-21T06:57:09.000Z,99.24
2023-12-21T06:58:13.000Z,99.24
2023-12-21T06:59:17.000Z,99.24
2023-12-21T07:00:20.000Z,99.24
2023-12-21T07:01:24.000Z,99.34
2023-12-21T07:02:28.000Z,99.34
2023-12-21T07:03:32.000Z,99.34
2023-12-21T07:04:36.000Z,99.34
2023-12-21T07:05:39.000Z,99.34
2023-12-21T07:06:43.000Z,99.34
2023-12-21T07:07:47.000Z,99.34
2023-12-21T07:08:51.000Z,99.34
2023-12-21T07:09:55.000Z,99.24
2023-12-21T07:10:58.000Z,99.14
2023-12-21T07:12:02.000Z,99.14
2023-12-21T07:13:06.000Z,99.04
2023-12-21T07:14:10.000Z,99.14
2023-12-21T07:15:13.000Z,99.24
2023-12-21T07:16:17.000Z,99.24
2023-12-21T07:17:21.000Z,99.34
2023-12-21T07:18:25.000Z,99.34
2023-12-21T07:19:28.000Z,99.34
2023-12-21T07:20:32.000Z,99.34
2023-12-21T07:21:36.000Z,99.44
2023-12-21T07:22:40.000Z,99.6
2023-12-21T07:23:44.000Z,99.7
2023-12-21T07:24:47.000Z,99.7
2023-12-21T07:25:51.000Z,99.8
2023-12-21T07:26:55.000Z,99.7
2023-12-21T07:27:59.000Z,99.6
2023-12-21T07:29:02.000Z,99.6
2023-12-21T07:30:06.000Z,99.7
2023-12-21T07:31:10.000Z,99.7
2023-12-21T07:32:14.000Z,99.7
2023-12-21T07:33:17.000Z,99.8
2023-12-21T07:34:21.000Z,99.9
2023-12-21T07:35:25.000Z,99.86
2023-12-21T07:36:28.000Z,99.9
2023-12-21T07:37:32.000Z,99.8
2023-12-21T07:38:36.000Z,99.7
2023-12-21T07:39:40.000Z,99.7
2023-12-21T07:40:43.000Z,99.8
2023-12-21T07:41:47.000Z,99.8
2023-12-21T07:42:51.000Z,99.7
2023-12-21T07:43:55.000Z,99.6
2023-12-21T07:44:58.000Z,99.6
2023-12-21T07:46:02.000Z,99.6
2023-12-21T07:47:06.000Z,99.6
2023-12-21T07:48:09.000Z,99.6
2023-12-21T07:49:13.000Z,99.6
2023-12-21T07:50:17.000Z,99.6
2023-12-21T07:51:21.000Z,99.49
2023-12-21T07:52:24.000Z,99.7
2023-12-21T07:53:28.000Z,99.8
2023-12-21T07:54:32.000Z,99.6
2023-12-21T07:55:36.000Z,99.49
2023-12-21T07:56:40.000Z,99.49
2023-12-21T07:57:43.000Z,99.24
2023-12-21T07:58:47.000Z,99.14
2023-12-21T07:59:51.000Z,99.04
2023-12-21T08:00:55.000Z,98.72
2023-12-21T08:01:59.000Z,98.83
2023-12-21T08:03:02.000Z,98.72
2023-12-21T08:04:06.000Z,98.72
2023-12-21T08:05:10.000Z,98.52
2023-12-21T08:06:14.000Z,98.62
2023-12-21T08:07:18.000Z,98.42
2023-12-21T08:08:21.000Z,98.21
2023-12-21T08:09:25.000Z,98.21
2023-12-21T08:10:29.000Z,98.21
2023-12-21T08:11:33.000Z,98.16
2023-12-21T08:12:36.000Z,98.27
2023-12-21T08:13:40.000Z,98.37
2023-12-21T08:14:44.000Z,98.27
2023-12-21T08:15:48.000Z,98.32
2023-12-21T08:16:51.000Z,98.21
2023-12-21T08:17:55.000Z,98.32
2023-12-21T08:18:59.000Z,98.42
2023-12-21T08:20:02.000Z,98.11
2023-12-21T08:21:06.000Z,98.11
2023-12-21T08:22:10.000Z,98.21
2023-12-21T08:23:14.000Z,98.21
2023-12-21T08:24:18.000Z,98.11
2023-12-21T08:25:21.000Z,98.11
2023-12-21T08:26:25.000Z,98.21
2023-12-21T08:27:29.000Z,98.52
2023-12-21T08:28:32.000Z,98.52
2023-12-21T08:29:36.000Z,98.52
2023-12-21T08:30:40.000Z,98.83
2023-12-21T08:31:44.000Z,98.93
2023-12-21T08:32:47.000Z,99.04
2023-12-21T08:33:51.000Z,98.93
2023-12-21T08:34:55.000Z,98.93
2023-12-21T08:35:59.000Z,98.72
2023-12-21T08:37:03.000Z,98.83
2023-12-21T08:38:06.000Z,98.72
2023-12-21T08:39:10.000Z,98.62
2023-12-21T08:40:14.000Z,98.52
2023-12-21T08:41:18.000Z,98.52
2023-12-21T08:42:21.000Z,98.52
2023-12-21T08:43:25.000Z,98.37
2023-12-21T08:44:29.000Z,98.16
2023-12-21T08:45:33.000Z,98.27
2023-12-21T08:46:36.000Z,98.06
2023-12-21T08:47:40.000Z,97.96
2023-12-21T08:48:44.000Z,98.06
2023-12-21T08:49:48.000Z,97.96
2023-12-21T08:50:52.000Z,97.86
2023-12-21T08:51:55.000Z,97.86
2023-12-21T08:52:59.000Z,97.86
2023-12-21T08:54:03.000Z,97.65
2023-12-21T08:55:07.000Z,97.75
2023-12-21T08:56:11.000Z,97.65
2023-12-21T08:57:14.000Z,97.55
2023-12-21T08:58:18.000Z,97.34
2023-12-21T08:59:22.000Z,97.55
2023-12-21T09:00:26.000Z,97.34
2023-12-21T09:01:29.000Z,97.34
2023-12-21T09:02:33.000Z,97.44
2023-12-21T09:03:37.000Z,97.24
2023-12-21T09:04:40.000Z,97.03
2023-12-21T09:05:44.000Z,96.72
2023-12-21T09:06:48.000Z,96.58
2023-12-21T09:07:52.000Z,96.58
2023-12-21T09:08:55.000Z,96.47
2023-12-21T09:09:59.000Z,95.86
2023-12-21T09:11:03.000Z,95.55
2023-12-21T09:12:07.000Z,95.45
2023-12-21T09:13:10.000Z,95.45
2023-12-21T09:14:14.000Z,95.65
2023-12-21T09:15:18.000Z,95.45
2023-12-21T09:16:22.000Z,95.45
2023-12-21T09:17:25.000Z,94.83
2023-12-21T09:18:29.000Z,94.93
2023-12-21T09:19:33.000Z,94.73
2023-12-21T09:20:37.000Z,94.73
2023-12-21T09:21:40.000Z,94.73
2023-12-21T09:22:44.000Z,94.42
2023-12-21T09:23:48.000Z,94.42
2023-12-21T09:24:52.000Z,94.01
2023-12-21T09:25:55.000Z,94.01
2023-12-21T09:26:59.000Z,94.21
2023-12-21T09:28:03.000Z,93.8
2023-12-21T09:29:07.000Z,93.8
2023-12-21T09:30:10.000Z,93.7
2023-12-21T09:31:14.000Z,93.04
2023-12-21T09:32:18.000Z,93.35
2023-12-21T09:33:22.000Z,92.63
2023-12-21T09:34:26.000Z,92.73
2023-12-21T09:35:29.000Z,92.21
2023-12-21T09:36:33.000Z,92.21
2023-12-21T09:37:37.000Z,92.42
2023-12-21T09:38:41.000Z,92.11
2023-12-21T09:39:45.000Z,92.01
2023-12-21T09:40:48.000Z,92.11
2023-12-21T09:41:52.000Z,92.21
2023-12-21T09:42:56.000Z,91.8
2023-12-21T09:44:00.000Z,91.7
2023-12-21T09:45:04.000Z,91.8
2023-12-21T09:46:07.000Z,91.39
2023-12-21T09:47:11.000Z,91.6
2023-12-21T09:48:15.000Z,91.45
2023-12-21T09:49:19.000Z,91.55
2023-12-21T09:50:22.000Z,91.55
2023-12-21T09:51:26.000Z,91.25
2023-12-21T09:52:30.000Z,90.83
2023-12-21T09:53:34.000Z,90.94
2023-12-21T09:54:37.000Z,91.45
2023-12-21T09:55:41.000Z,91.25
2023-12-21T09:56:45.000Z,92.17
2023-12-21T09:57:49.000Z,92.07
2023-12-21T09:58:52.000Z,91.97
2023-12-21T09:59:56.000Z,92.27
2023-12-21T10:01:00.000Z,92.32
2023-12-21T10:02:04.000Z,92.42
2023-12-21T10:03:07.000Z,92.63
2023-12-21T10:04:11.000Z,92.42
2023-12-21T10:05:15.000Z,92.21
2023-12-21T10:06:18.000Z,92.21
2023-12-21T10:07:22.000Z,92.01
2023-12-21T10:08:26.000Z,91.76
2023-12-21T10:09:30.000Z,91.97
2023-12-21T10:10:33.000Z,91.91
2023-12-21T10:11:37.000Z,92.11
2023-12-21T10:12:41.000Z,91.6
2023-12-21T10:13:45.000Z,91.35
2023-12-21T10:14:48.000Z,91.45
2023-12-21T10:15:52.000Z,91.76
2023-12-21T10:16:56.000Z,91.55
2023-12-21T10:18:00.000Z,91.55
2023-12-21T10:19:03.000Z,91.55
2023-12-21T10:20:07.000Z,91.45
2023-12-21T10:21:11.000Z,91.76
2023-12-21T10:22:15.000Z,91.76
2023-12-21T10:23:19.000Z,92.27
2023-12-21T10:24:22.000Z,92.17
2023-12-21T10:25:26.000Z,92.27
2023-12-21T10:26:30.000Z,92.58
2023-12-21T10:27:34.000Z,92.69
2023-12-21T10:28:38.000Z,92.99
2023-12-21T10:29:41.000Z,92.58
2023-12-21T10:30:45.000Z,93.1
2023-12-21T10:31:49.000Z,92.69
2023-12-21T10:32:53.000Z,92.89
2023-12-21T10:33:57.000Z,92.69
2023-12-21T10:35:00.000Z,92.89
2023-12-21T10:36:04.000Z,93.2
2023-12-21T10:37:08.000Z,93.2
2023-12-21T10:38:12.000Z,93.4
2023-12-21T10:39:16.000Z,93.61
2023-12-21T10:40:19.000Z,94.23
2023-12-21T10:41:23.000Z,94.89
2023-12-21T10:42:27.000Z,95.2
2023-12-21T10:43:31.000Z,95.71
2023-12-21T10:44:34.000Z,95.61
2023-12-21T10:45:38.000Z,96.02
2023-12-21T10:46:42.000Z,96.12
2023-12-21T10:47:45.000Z,96.53
2023-12-21T10:48:49.000Z,96.22
2023-12-21T10:49:53.000Z,96.64
2023-12-21T10:50:57.000Z,97.45
2023-12-21T10:52:00.000Z,97.3
2023-12-21T10:53:04.000Z,97.81
2023-12-21T10:54:08.000Z,97.71
2023-12-21T10:55:12.000Z,98.12
2023-12-21T10:56:15.000Z,98.33
2023-12-21T10:57:19.000Z,98.63
2023-12-21T10:58:23.000Z,98.84
2023-12-21T10:59:26.000Z,99.15
2023-12-21T11:00:30.000Z,99.46
2023-12-21T11:01:34.000Z,99.77
2023-12-21T11:02:38.000Z,99.97
2023-12-21T11:03:42.000Z,99.99
2023-12-21T11:04:45.000Z,99.99
2023-12-21T11:05:49.000Z,99.99
2023-12-21T11:06:53.000Z,99.99
2023-12-21T11:07:57.000Z,99.99
2023-12-21T11:09:00.000Z,99.99
2023-12-21T11:10:04.000Z,99.99
2023-12-21T11:11:08.000Z,99.99
2023-12-21T11:12:12.000Z,99.99
2023-12-21T11:13:15.000Z,99.99
2023-12-21T11:14:19.000Z,99.99
2023-12-21T11:15:23.000Z,99.99
2023-12-21T11:16:27.000Z,99.99
2023-12-21T11:17:31.000Z,99.99
2023-12-21T11:18:34.000Z,99.99
2023-12-21T11:19:38.000Z,99.99
2023-12-21T11:20:42.000Z,99.99
2023-12-21T11:21:46.000Z,99.99
2023-12-21T11:22:49.000Z,99.99
2023-12-21T11:23:53.000Z,99.99
2023-12-21T11:24:57.000Z,99.99
2023-12-21T11:26:01.000Z,99.99
2023-12-21T11:27:05.000Z,99.99
2023-12-21T11:28:08.000Z,99.99
2023-12-21T11:29:12.000Z,99.99
2023-12-21T11:30:16.000Z,99.99
2023-12-21T11:31:20.000Z,99.99
2023-12-21T11:32:23.000Z,99.99
2023-12-21T11:33:27.000Z,99.99
2023-12-21T11:34:31.000Z,99.99
2023-12-21T11:35:35.000Z,99.99
2023-12-21T11:36:39.000Z,99.99
2023-12-21T11:37:42.000Z,99.99
2023-12-21T11:38:46.000Z,99.99
2023-12-21T11:39:50.000Z,99.99
2023-12-21T11:40:53.000Z,99.99
2023-12-21T11:41:57.000Z,99.99
2023-12-21T11:43:01.000Z,99.99
2023-12-21T11:44:05.000Z,99.99
2023-12-21T11:45:09.000Z,99.99
2023-12-21T11:46:12.000Z,99.99
2023-12-21T11:47:16.000Z,99.99
2023-12-21T11:48:20.000Z,99.99
2023-12-21T11:49:23.000Z,99.99
2023-12-21T11:50:27.000Z,99.99
2023-12-21T11:51:31.000Z,99.99
2023-12-21T11:52:35.000Z,99.99
2023-12-21T11:53:38.000Z,99.99
2023-12-21T11:54:42.000Z,99.99
2023-12-21T11:55:46.000Z,99.99
2023-12-21T11:56:50.000Z,99.99
2023-12-21T11:57:53.000Z,99.99
2023-12-21T11:58:57.000Z,99.99
2023-12-21T12:00:01.000Z,99.99
2023-12-21T12:01:05.000Z,99.99
2023-12-21T12:02:08.000Z,99.99
2023-12-21T12:03:12.000Z,99.99
2023-12-21T12:04:16.000Z,99.99
2023-12-21T12:05:20.000Z,99.99
2023-12-21T12:06:24.000Z,99.99
2023-12-21T12:07:27.000Z,99.99
2023-12-21T12:08:31.000Z,99.99
2023-12-21T12:09:35.000Z,99.99
2023-12-21T12:10:39.000Z,99.99
2023-12-21T12:11:43.000Z,99.99
2023-12-21T12:12:46.000Z,99.99
2023-12-21T12:13:50.000Z,99.99
2023-12-21T12:14:54.000Z,99.99
2023-12-21T12:15:58.000Z,99.99
2023-12-21T12:17:01.000Z,99.99
2023-12-21T12:18:05.000Z,99.99
2023-12-21T12:19:09.000Z,99.99
2023-12-21T12:20:13.000Z,99.99
2023-12-21T12:21:17.000Z,99.99
2023-12-21T12:22:20.000Z,99.99
2023-12-21T12:23:24.000Z,99.93
2023-12-21T12:24:28.000Z,99.93
2023-12-21T12:25:32.000Z,99.93
2023-12-21T12:26:35.000Z,99.89
2023-12-21T12:27:39.000Z,99.58
2023-12-21T12:28:43.000Z,99.48
2023-12-21T12:29:47.000Z,99.58
2023-12-21T12:30:51.000Z,99.68
2023-12-21T12:31:54.000Z,99.38
2023-12-21T12:32:58.000Z,99.48
2023-12-21T12:34:02.000Z,99.27
2023-12-21T12:35:06.000Z,99.27
2023-12-21T12:36:09.000Z,98.86
2023-12-21T12:37:13.000Z,98.66
2023-12-21T12:38:17.000Z,98.66
2023-12-21T12:39:21.000Z,98.66
2023-12-21T12:40:24.000Z,98.45
2023-12-21T12:41:28.000Z,97.94
2023-12-21T12:42:32.000Z,97.89
2023-12-21T12:43:36.000Z,97.69
2023-12-21T12:44:39.000Z,97.89
2023-12-21T12:45:43.000Z,97.89
2023-12-21T12:46:47.000Z,97.58
2023-12-21T12:47:50.000Z,97.38
2023-12-21T12:48:54.000Z,97.28
2023-12-21T12:49:58.000Z,96.97
2023-12-21T12:51:02.000Z,97.07
2023-12-21T12:52:05.000Z,97.17
2023-12-21T12:53:09.000Z,97.28
2023-12-21T12:54:13.000Z,97.48
2023-12-21T12:55:17.000Z,97.28
2023-12-21T12:56:20.000Z,97.17
2023-12-21T12:57:24.000Z,96.77
2023-12-21T12:58:28.000Z,96.77
2023-12-21T12:59:32.000Z,96.56
2023-12-21T13:00:36.000Z,96.35
2023-12-21T13:01:39.000Z,96.66
2023-12-21T13:02:43.000Z,96.04
2023-12-21T13:03:47.000Z,95.94
2023-12-21T13:04:51.000Z,95.79
2023-12-21T13:05:54.000Z,95.79
2023-12-21T13:06:58.000Z,95.59
2023-12-21T13:08:02.000Z,95.59
2023-12-21T13:09:06.000Z,95.18
2023-12-21T13:10:09.000Z,94.87
2023-12-21T13:11:13.000Z,94.98
2023-12-21T13:12:17.000Z,94.87
2023-12-21T13:13:21.000Z,94.56
2023-12-21T13:14:25.000Z,94.36
2023-12-21T13:15:28.000Z,94.21
2023-12-21T13:16:32.000Z,93.7
2023-12-21T13:17:36.000Z,93.6
2023-12-21T13:18:40.000Z,93.8
2023-12-21T13:19:44.000Z,93.9
2023-12-21T13:20:47.000Z,93.6
2023-12-21T13:21:51.000Z,94.11
2023-12-21T13:22:55.000Z,94.11
2023-12-21T13:23:59.000Z,92.98
2023-12-21T13:25:02.000Z,93.39
2023-12-21T13:26:06.000Z,92.98
2023-12-21T13:27:10.000Z,92.94
2023-12-21T13:28:14.000Z,92.94
2023-12-21T13:29:17.000Z,93.35
2023-12-21T13:30:21.000Z,92.63
2023-12-21T13:31:25.000Z,92.22
2023-12-21T13:32:29.000Z,92.22
2023-12-21T13:33:32.000Z,92.43
2023-12-21T13:34:36.000Z,92.63
2023-12-21T13:35:40.000Z,93.35
2023-12-21T13:36:44.000Z,93.04
2023-12-21T13:37:47.000Z,92.32
2023-12-21T13:38:51.000Z,92.22
2023-12-21T13:39:55.000Z,92.22
2023-12-21T13:40:59.000Z,92.83
2023-12-21T13:42:02.000Z,92.43
2023-12-21T13:43:06.000Z,92.32
2023-12-21T13:44:10.000Z,92.43